sensor_id;sensor_type;location;lat;lon;timestamp;P1;durP1;ratioP1;P2;durP2;ratioP2
72095;SDS011;59968;51.084;16.748;2024-03-22T00:01:01;6.90;;;3.60;;
72095;SDS011;59968;51.084;16.748;2024-03-22T00:03:40;7.60;;;4.10;;
72095;SDS011;59968;51.084;16.748;2024-03-22T00:06:08;7.70;;;3.70;;
72095;SDS011;59968;51.084;16.748;2024-03-22T00:08:36;7.60;;;4.00;;
72095;SDS011;59968;51.084;16.748;2024-03-22T00:11:04;7.30;;;3.50;;
72095;SDS011;59968;51.084;16.748;2024-03-22T00:13:32;9.40;;;3.80;;
72095;SDS011;59968;51.084;16.748;2024-03-22T00:16:00;8.20;;;3.70;;
72095;SDS011;59968;51.084;16.748;2024-03-22T00:18:28;11.30;;;5.00;;
72095;SDS011;59968;51.084;16.748;2024-03-22T00:20:56;8.50;;;4.10;;
72095;SDS011;59968;51.084;16.748;2024-03-22T00:23:25;11.50;;;5.30;;
72095;SDS011;59968;51.084;16.748;2024-03-22T00:25:53;11.10;;;5.20;;
72095;SDS011;59968;51.084;16.748;2024-03-22T00:28:21;10.90;;;4.90;;
72095;SDS011;59968;51.084;16.748;2024-03-22T00:30:49;10.40;;;4.60;;
72095;SDS011;59968;51.084;16.748;2024-03-22T00:33:17;12.60;;;5.60;;
72095;SDS011;59968;51.084;16.748;2024-03-22T00:35:46;11.00;;;4.90;;
72095;SDS011;59968;51.084;16.748;2024-03-22T00:38:14;10.60;;;4.80;;
72095;SDS011;59968;51.084;16.748;2024-03-22T00:40:43;10.10;;;4.20;;
72095;SDS011;59968;51.084;16.748;2024-03-22T00:43:12;10.90;;;4.50;;
72095;SDS011;59968;51.084;16.748;2024-03-22T00:45:40;10.30;;;4.80;;
72095;SDS011;59968;51.084;16.748;2024-03-22T00:48:08;10.10;;;4.60;;
72095;SDS011;59968;51.084;16.748;2024-03-22T00:50:37;9.20;;;3.80;;
72095;SDS011;59968;51.084;16.748;2024-03-22T00:53:05;10.00;;;4.20;;
72095;SDS011;59968;51.084;16.748;2024-03-22T00:55:35;10.30;;;3.90;;
72095;SDS011;59968;51.084;16.748;2024-03-22T00:58:03;7.80;;;3.30;;
72095;SDS011;59968;51.084;16.748;2024-03-22T01:00:33;9.30;;;3.90;;
72095;SDS011;59968;51.084;16.748;2024-03-22T01:03:01;9.00;;;4.20;;
72095;SDS011;59968;51.084;16.748;2024-03-22T01:05:29;8.30;;;3.60;;
72095;SDS011;59968;51.084;16.748;2024-03-22T01:07:58;9.30;;;4.00;;
72095;SDS011;59968;51.084;16.748;2024-03-22T01:10:26;8.80;;;3.70;;
72095;SDS011;59968;51.084;16.748;2024-03-22T01:12:57;9.10;;;3.90;;
72095;SDS011;59968;51.084;16.748;2024-03-22T01:15:25;8.60;;;3.60;;
72095;SDS011;59968;51.084;16.748;2024-03-22T01:17:53;8.10;;;3.50;;
72095;SDS011;59968;51.084;16.748;2024-03-22T01:20:22;9.00;;;4.10;;
72095;SDS011;59968;51.084;16.748;2024-03-22T01:22:50;8.70;;;4.30;;
72095;SDS011;59968;51.084;16.748;2024-03-22T01:25:18;9.20;;;3.90;;
72095;SDS011;59968;51.084;16.748;2024-03-22T01:27:47;7.70;;;3.60;;
72095;SDS011;59968;51.084;16.748;2024-03-22T01:30:15;8.60;;;3.50;;
72095;SDS011;59968;51.084;16.748;2024-03-22T01:32:43;9.60;;;3.80;;
72095;SDS011;59968;51.084;16.748;2024-03-22T01:35:11;9.80;;;4.00;;
72095;SDS011;59968;51.084;16.748;2024-03-22T01:37:40;9.20;;;4.00;;
72095;SDS011;59968;51.084;16.748;2024-03-22T01:40:09;8.20;;;3.80;;
72095;SDS011;59968;51.084;16.748;2024-03-22T01:42:37;9.20;;;4.40;;
72095;SDS011;59968;51.084;16.748;2024-03-22T01:45:06;8.50;;;4.00;;
72095;SDS011;59968;51.084;16.748;2024-03-22T01:47:35;9.70;;;4.20;;
72095;SDS011;59968;51.084;16.748;2024-03-22T01:50:03;7.80;;;3.20;;
72095;SDS011;59968;51.084;16.748;2024-03-22T01:52:33;7.90;;;4.00;;
72095;SDS011;59968;51.084;16.748;2024-03-22T01:55:01;7.40;;;3.50;;
72095;SDS011;59968;51.084;16.748;2024-03-22T01:57:33;8.00;;;3.50;;
72095;SDS011;59968;51.084;16.748;2024-03-22T02:00:02;9.30;;;4.00;;
72095;SDS011;59968;51.084;16.748;2024-03-22T02:02:40;9.50;;;4.10;;
72095;SDS011;59968;51.084;16.748;2024-03-22T02:05:12;9.50;;;4.40;;
72095;SDS011;59968;51.084;16.748;2024-03-22T02:07:41;9.50;;;4.90;;
72095;SDS011;59968;51.084;16.748;2024-03-22T02:10:09;9.10;;;4.20;;
72095;SDS011;59968;51.084;16.748;2024-03-22T02:12:39;9.80;;;4.60;;
72095;SDS011;59968;51.084;16.748;2024-03-22T02:15:08;8.80;;;4.50;;
72095;SDS011;59968;51.084;16.748;2024-03-22T02:17:37;8.50;;;4.50;;
72095;SDS011;59968;51.084;16.748;2024-03-22T02:20:05;10.80;;;4.70;;
72095;SDS011;59968;51.084;16.748;2024-03-22T02:22:35;10.00;;;4.60;;
72095;SDS011;59968;51.084;16.748;2024-03-22T02:25:04;11.20;;;4.90;;
72095;SDS011;59968;51.084;16.748;2024-03-22T02:27:33;11.10;;;4.90;;
72095;SDS011;59968;51.084;16.748;2024-03-22T02:30:01;9.90;;;4.40;;
72095;SDS011;59968;51.084;16.748;2024-03-22T02:32:30;10.90;;;5.10;;
72095;SDS011;59968;51.084;16.748;2024-03-22T02:34:58;10.70;;;5.30;;
72095;SDS011;59968;51.084;16.748;2024-03-22T02:37:29;13.00;;;5.40;;
72095;SDS011;59968;51.084;16.748;2024-03-22T02:39:57;12.60;;;5.40;;
72095;SDS011;59968;51.084;16.748;2024-03-22T02:42:25;11.10;;;4.60;;
72095;SDS011;59968;51.084;16.748;2024-03-22T02:44:53;13.40;;;6.10;;
72095;SDS011;59968;51.084;16.748;2024-03-22T02:47:21;12.50;;;5.40;;
72095;SDS011;59968;51.084;16.748;2024-03-22T02:49:51;14.00;;;6.30;;
72095;SDS011;59968;51.084;16.748;2024-03-22T02:52:19;16.00;;;7.20;;
72095;SDS011;59968;51.084;16.748;2024-03-22T02:54:47;14.40;;;6.30;;
72095;SDS011;59968;51.084;16.748;2024-03-22T02:57:15;13.90;;;6.40;;
72095;SDS011;59968;51.084;16.748;2024-03-22T02:59:43;13.10;;;5.80;;
72095;SDS011;59968;51.084;16.748;2024-03-22T03:02:12;16.10;;;6.10;;
72095;SDS011;59968;51.084;16.748;2024-03-22T03:04:40;14.20;;;6.20;;
72095;SDS011;59968;51.084;16.748;2024-03-22T03:07:08;16.80;;;7.00;;
72095;SDS011;59968;51.084;16.748;2024-03-22T03:09:36;12.70;;;5.70;;
72095;SDS011;59968;51.084;16.748;2024-03-22T03:12:04;17.30;;;7.00;;
72095;SDS011;59968;51.084;16.748;2024-03-22T03:14:33;12.60;;;5.30;;
72095;SDS011;59968;51.084;16.748;2024-03-22T03:17:02;14.50;;;6.40;;
72095;SDS011;59968;51.084;16.748;2024-03-22T03:19:30;11.80;;;5.40;;
72095;SDS011;59968;51.084;16.748;2024-03-22T03:21:58;15.20;;;6.80;;
72095;SDS011;59968;51.084;16.748;2024-03-22T03:24:26;13.40;;;6.50;;
72095;SDS011;59968;51.084;16.748;2024-03-22T03:26:54;17.20;;;7.30;;
72095;SDS011;59968;51.084;16.748;2024-03-22T03:29:22;14.90;;;6.70;;
72095;SDS011;59968;51.084;16.748;2024-03-22T03:31:51;13.40;;;6.90;;
72095;SDS011;59968;51.084;16.748;2024-03-22T03:34:19;13.10;;;6.50;;
72095;SDS011;59968;51.084;16.748;2024-03-22T03:36:48;14.80;;;6.60;;
72095;SDS011;59968;51.084;16.748;2024-03-22T03:39:16;15.20;;;6.30;;
72095;SDS011;59968;51.084;16.748;2024-03-22T03:41:44;14.00;;;6.30;;
72095;SDS011;59968;51.084;16.748;2024-03-22T03:44:13;15.80;;;7.00;;
72095;SDS011;59968;51.084;16.748;2024-03-22T03:46:41;15.30;;;6.50;;
72095;SDS011;59968;51.084;16.748;2024-03-22T03:49:09;16.50;;;7.00;;
72095;SDS011;59968;51.084;16.748;2024-03-22T03:51:38;16.00;;;7.30;;
72095;SDS011;59968;51.084;16.748;2024-03-22T03:54:06;12.50;;;5.80;;
72095;SDS011;59968;51.084;16.748;2024-03-22T03:56:34;15.30;;;6.90;;
72095;SDS011;59968;51.084;16.748;2024-03-22T03:59:02;15.30;;;7.00;;
72095;SDS011;59968;51.084;16.748;2024-03-22T04:01:30;15.00;;;6.40;;
72095;SDS011;59968;51.084;16.748;2024-03-22T04:03:58;13.80;;;6.40;;
72095;SDS011;59968;51.084;16.748;2024-03-22T04:06:26;14.60;;;6.20;;
72095;SDS011;59968;51.084;16.748;2024-03-22T04:08:54;16.70;;;8.00;;
72095;SDS011;59968;51.084;16.748;2024-03-22T04:11:22;16.00;;;7.10;;
72095;SDS011;59968;51.084;16.748;2024-03-22T04:13:51;13.00;;;6.10;;
72095;SDS011;59968;51.084;16.748;2024-03-22T04:16:19;13.00;;;5.80;;
72095;SDS011;59968;51.084;16.748;2024-03-22T04:18:47;14.80;;;6.40;;
72095;SDS011;59968;51.084;16.748;2024-03-22T04:21:16;15.60;;;6.80;;
72095;SDS011;59968;51.084;16.748;2024-03-22T04:23:45;14.40;;;6.40;;
72095;SDS011;59968;51.084;16.748;2024-03-22T04:26:13;14.20;;;6.50;;
72095;SDS011;59968;51.084;16.748;2024-03-22T04:28:41;16.60;;;7.00;;
72095;SDS011;59968;51.084;16.748;2024-03-22T04:31:09;12.90;;;5.40;;
72095;SDS011;59968;51.084;16.748;2024-03-22T04:33:37;14.10;;;6.00;;
72095;SDS011;59968;51.084;16.748;2024-03-22T04:36:06;16.40;;;6.60;;
72095;SDS011;59968;51.084;16.748;2024-03-22T04:38:37;15.00;;;6.50;;
72095;SDS011;59968;51.084;16.748;2024-03-22T04:41:05;14.70;;;6.30;;
72095;SDS011;59968;51.084;16.748;2024-03-22T04:43:33;15.50;;;6.90;;
72095;SDS011;59968;51.084;16.748;2024-03-22T04:46:03;16.20;;;6.90;;
72095;SDS011;59968;51.084;16.748;2024-03-22T04:48:31;14.70;;;6.40;;
72095;SDS011;59968;51.084;16.748;2024-03-22T04:51:00;16.10;;;6.70;;
72095;SDS011;59968;51.084;16.748;2024-03-22T04:53:28;14.20;;;6.40;;
72095;SDS011;59968;51.084;16.748;2024-03-22T04:55:56;16.80;;;6.90;;
72095;SDS011;59968;51.084;16.748;2024-03-22T04:58:25;14.60;;;6.40;;
72095;SDS011;59968;51.084;16.748;2024-03-22T05:00:57;14.70;;;6.50;;
72095;SDS011;59968;51.084;16.748;2024-03-22T05:03:26;16.10;;;7.20;;
72095;SDS011;59968;51.084;16.748;2024-03-22T05:05:54;14.00;;;6.30;;
72095;SDS011;59968;51.084;16.748;2024-03-22T05:08:23;15.80;;;6.70;;
72095;SDS011;59968;51.084;16.748;2024-03-22T05:10:52;14.10;;;6.20;;
72095;SDS011;59968;51.084;16.748;2024-03-22T05:13:20;14.10;;;5.50;;
72095;SDS011;59968;51.084;16.748;2024-03-22T05:15:49;12.80;;;5.40;;
72095;SDS011;59968;51.084;16.748;2024-03-22T05:18:17;15.20;;;6.10;;
72095;SDS011;59968;51.084;16.748;2024-03-22T05:20:45;13.80;;;5.50;;
72095;SDS011;59968;51.084;16.748;2024-03-22T05:23:13;12.80;;;5.40;;
72095;SDS011;59968;51.084;16.748;2024-03-22T05:25:43;13.60;;;6.10;;
72095;SDS011;59968;51.084;16.748;2024-03-22T05:28:11;13.10;;;5.60;;
72095;SDS011;59968;51.084;16.748;2024-03-22T05:30:40;13.70;;;5.80;;
72095;SDS011;59968;51.084;16.748;2024-03-22T05:33:08;14.00;;;5.20;;
72095;SDS011;59968;51.084;16.748;2024-03-22T05:35:36;15.60;;;5.90;;
72095;SDS011;59968;51.084;16.748;2024-03-22T05:49:33;16.30;;;6.80;;
72095;SDS011;59968;51.084;16.748;2024-03-22T05:52:01;14.10;;;6.30;;
72095;SDS011;59968;51.084;16.748;2024-03-22T05:54:30;14.40;;;6.30;;
72095;SDS011;59968;51.084;16.748;2024-03-22T05:56:59;14.30;;;6.10;;
72095;SDS011;59968;51.084;16.748;2024-03-22T05:59:29;14.10;;;6.10;;
72095;SDS011;59968;51.084;16.748;2024-03-22T06:01:57;12.40;;;5.70;;
72095;SDS011;59968;51.084;16.748;2024-03-22T06:04:25;15.30;;;6.10;;
72095;SDS011;59968;51.084;16.748;2024-03-22T06:06:54;15.20;;;5.60;;
72095;SDS011;59968;51.084;16.748;2024-03-22T06:09:22;15.10;;;5.80;;
72095;SDS011;59968;51.084;16.748;2024-03-22T06:12:05;12.50;;;5.30;;
72095;SDS011;59968;51.084;16.748;2024-03-22T06:14:34;14.80;;;6.00;;
72095;SDS011;59968;51.084;16.748;2024-03-22T06:17:03;16.60;;;6.70;;
72095;SDS011;59968;51.084;16.748;2024-03-22T06:19:31;13.80;;;5.60;;
72095;SDS011;59968;51.084;16.748;2024-03-22T06:22:00;15.40;;;6.30;;
72095;SDS011;59968;51.084;16.748;2024-03-22T06:24:28;15.60;;;6.10;;
72095;SDS011;59968;51.084;16.748;2024-03-22T06:26:57;16.70;;;6.70;;
72095;SDS011;59968;51.084;16.748;2024-03-22T06:29:25;14.10;;;6.30;;
72095;SDS011;59968;51.084;16.748;2024-03-22T06:31:53;15.40;;;6.50;;
72095;SDS011;59968;51.084;16.748;2024-03-22T06:34:21;15.70;;;6.60;;
72095;SDS011;59968;51.084;16.748;2024-03-22T06:36:49;16.20;;;6.40;;
72095;SDS011;59968;51.084;16.748;2024-03-22T06:39:18;15.90;;;6.10;;
72095;SDS011;59968;51.084;16.748;2024-03-22T06:41:47;16.40;;;6.60;;
72095;SDS011;59968;51.084;16.748;2024-03-22T06:44:15;15.10;;;6.90;;
72095;SDS011;59968;51.084;16.748;2024-03-22T06:46:44;15.00;;;6.30;;
72095;SDS011;59968;51.084;16.748;2024-03-22T06:49:12;17.70;;;6.70;;
72095;SDS011;59968;51.084;16.748;2024-03-22T06:51:40;16.10;;;6.70;;
72095;SDS011;59968;51.084;16.748;2024-03-22T06:54:08;16.30;;;5.90;;
72095;SDS011;59968;51.084;16.748;2024-03-22T06:56:36;15.80;;;6.60;;
72095;SDS011;59968;51.084;16.748;2024-03-22T06:59:04;16.50;;;6.70;;
72095;SDS011;59968;51.084;16.748;2024-03-22T07:01:32;16.10;;;6.70;;
72095;SDS011;59968;51.084;16.748;2024-03-22T07:04:00;17.00;;;6.80;;
72095;SDS011;59968;51.084;16.748;2024-03-22T07:06:28;19.20;;;7.40;;
72095;SDS011;59968;51.084;16.748;2024-03-22T07:08:57;17.70;;;8.20;;
72095;SDS011;59968;51.084;16.748;2024-03-22T07:11:25;19.70;;;7.80;;
72095;SDS011;59968;51.084;16.748;2024-03-22T07:13:53;18.90;;;7.90;;
72095;SDS011;59968;51.084;16.748;2024-03-22T07:16:21;16.70;;;7.00;;
72095;SDS011;59968;51.084;16.748;2024-03-22T07:18:49;16.70;;;6.40;;
72095;SDS011;59968;51.084;16.748;2024-03-22T07:21:18;19.10;;;7.80;;
72095;SDS011;59968;51.084;16.748;2024-03-22T07:23:47;15.90;;;6.70;;
72095;SDS011;59968;51.084;16.748;2024-03-22T07:26:15;16.30;;;6.50;;
72095;SDS011;59968;51.084;16.748;2024-03-22T07:28:56;16.00;;;6.70;;
72095;SDS011;59968;51.084;16.748;2024-03-22T07:31:25;16.10;;;6.50;;
72095;SDS011;59968;51.084;16.748;2024-03-22T07:33:53;14.40;;;6.60;;
72095;SDS011;59968;51.084;16.748;2024-03-22T07:36:24;16.10;;;6.60;;
72095;SDS011;59968;51.084;16.748;2024-03-22T07:38:54;17.10;;;7.70;;
72095;SDS011;59968;51.084;16.748;2024-03-22T07:41:24;13.30;;;5.70;;
72095;SDS011;59968;51.084;16.748;2024-03-22T07:43:54;17.60;;;7.00;;
72095;SDS011;59968;51.084;16.748;2024-03-22T07:46:23;17.50;;;7.30;;
72095;SDS011;59968;51.084;16.748;2024-03-22T07:48:51;15.40;;;6.50;;
72095;SDS011;59968;51.084;16.748;2024-03-22T07:51:20;16.90;;;7.10;;
72095;SDS011;59968;51.084;16.748;2024-03-22T07:53:48;16.30;;;6.70;;
72095;SDS011;59968;51.084;16.748;2024-03-22T07:56:16;15.70;;;7.40;;
72095;SDS011;59968;51.084;16.748;2024-03-22T07:58:45;17.20;;;7.50;;
72095;SDS011;59968;51.084;16.748;2024-03-22T08:01:13;17.50;;;7.70;;
72095;SDS011;59968;51.084;16.748;2024-03-22T08:03:41;17.60;;;8.00;;
72095;SDS011;59968;51.084;16.748;2024-03-22T08:06:09;16.20;;;7.40;;
72095;SDS011;59968;51.084;16.748;2024-03-22T08:08:38;15.60;;;6.80;;
72095;SDS011;59968;51.084;16.748;2024-03-22T08:11:06;18.30;;;8.20;;
72095;SDS011;59968;51.084;16.748;2024-03-22T08:13:35;18.20;;;8.20;;
72095;SDS011;59968;51.084;16.748;2024-03-22T08:16:04;19.30;;;8.70;;
72095;SDS011;59968;51.084;16.748;2024-03-22T08:18:33;18.90;;;8.20;;
72095;SDS011;59968;51.084;16.748;2024-03-22T08:21:01;15.30;;;6.60;;
72095;SDS011;59968;51.084;16.748;2024-03-22T08:23:30;16.00;;;7.80;;
72095;SDS011;59968;51.084;16.748;2024-03-22T08:25:58;17.30;;;7.40;;
72095;SDS011;59968;51.084;16.748;2024-03-22T08:28:27;18.80;;;7.60;;
72095;SDS011;59968;51.084;16.748;2024-03-22T08:31:05;18.30;;;7.90;;
72095;SDS011;59968;51.084;16.748;2024-03-22T08:33:34;13.50;;;6.30;;
72095;SDS011;59968;51.084;16.748;2024-03-22T08:36:02;16.70;;;7.90;;
72095;SDS011;59968;51.084;16.748;2024-03-22T08:38:31;14.10;;;6.60;;
72095;SDS011;59968;51.084;16.748;2024-03-22T08:40:59;15.00;;;6.70;;
72095;SDS011;59968;51.084;16.748;2024-03-22T08:43:28;16.40;;;7.50;;
72095;SDS011;59968;51.084;16.748;2024-03-22T08:45:57;16.10;;;8.40;;
72095;SDS011;59968;51.084;16.748;2024-03-22T08:48:26;14.60;;;7.20;;
72095;SDS011;59968;51.084;16.748;2024-03-22T08:50:54;15.40;;;7.60;;
72095;SDS011;59968;51.084;16.748;2024-03-22T08:53:23;14.80;;;7.60;;
72095;SDS011;59968;51.084;16.748;2024-03-22T08:55:53;13.40;;;6.80;;
72095;SDS011;59968;51.084;16.748;2024-03-22T08:58:22;16.30;;;7.40;;
72095;SDS011;59968;51.084;16.748;2024-03-22T09:00:50;14.90;;;7.50;;
72095;SDS011;59968;51.084;16.748;2024-03-22T09:03:18;14.20;;;7.30;;
72095;SDS011;59968;51.084;16.748;2024-03-22T09:05:52;16.60;;;7.10;;
72095;SDS011;59968;51.084;16.748;2024-03-22T09:08:35;14.90;;;6.80;;
72095;SDS011;59968;51.084;16.748;2024-03-22T09:11:04;15.70;;;7.80;;
72095;SDS011;59968;51.084;16.748;2024-03-22T09:13:32;14.40;;;7.10;;
72095;SDS011;59968;51.084;16.748;2024-03-22T09:16:03;15.90;;;7.00;;
72095;SDS011;59968;51.084;16.748;2024-03-22T09:18:32;16.10;;;7.70;;
72095;SDS011;59968;51.084;16.748;2024-03-22T09:21:01;15.50;;;7.00;;
72095;SDS011;59968;51.084;16.748;2024-03-22T09:23:30;15.10;;;6.90;;
72095;SDS011;59968;51.084;16.748;2024-03-22T09:25:58;14.60;;;7.00;;
72095;SDS011;59968;51.084;16.748;2024-03-22T09:28:29;16.50;;;7.90;;
72095;SDS011;59968;51.084;16.748;2024-03-22T09:31:07;14.60;;;7.00;;
72095;SDS011;59968;51.084;16.748;2024-03-22T09:33:36;15.90;;;7.30;;
72095;SDS011;59968;51.084;16.748;2024-03-22T09:36:04;11.50;;;5.50;;
72095;SDS011;59968;51.084;16.748;2024-03-22T09:38:33;13.80;;;6.40;;
72095;SDS011;59968;51.084;16.748;2024-03-22T09:41:01;14.90;;;6.70;;
72095;SDS011;59968;51.084;16.748;2024-03-22T09:43:30;14.70;;;6.90;;
72095;SDS011;59968;51.084;16.748;2024-03-22T09:46:01;16.80;;;6.80;;
72095;SDS011;59968;51.084;16.748;2024-03-22T09:48:29;13.60;;;6.70;;
72095;SDS011;59968;51.084;16.748;2024-03-22T09:51:00;13.50;;;6.90;;
72095;SDS011;59968;51.084;16.748;2024-03-22T09:53:29;14.80;;;7.80;;
72095;SDS011;59968;51.084;16.748;2024-03-22T09:55:58;13.00;;;6.50;;
72095;SDS011;59968;51.084;16.748;2024-03-22T09:58:29;13.80;;;6.60;;
72095;SDS011;59968;51.084;16.748;2024-03-22T10:00:58;14.10;;;6.80;;
72095;SDS011;59968;51.084;16.748;2024-03-22T10:03:29;15.50;;;6.80;;
72095;SDS011;59968;51.084;16.748;2024-03-22T10:05:57;15.20;;;6.90;;
72095;SDS011;59968;51.084;16.748;2024-03-22T10:08:26;13.60;;;6.70;;
72095;SDS011;59968;51.084;16.748;2024-03-22T10:10:54;15.60;;;7.90;;
72095;SDS011;59968;51.084;16.748;2024-03-22T10:13:22;14.10;;;6.80;;
72095;SDS011;59968;51.084;16.748;2024-03-22T10:15:50;16.10;;;7.30;;
72095;SDS011;59968;51.084;16.748;2024-03-22T10:18:18;15.00;;;7.00;;
72095;SDS011;59968;51.084;16.748;2024-03-22T10:20:47;14.20;;;6.90;;
72095;SDS011;59968;51.084;16.748;2024-03-22T10:23:26;14.70;;;6.40;;
72095;SDS011;59968;51.084;16.748;2024-03-22T10:25:57;14.20;;;7.00;;
72095;SDS011;59968;51.084;16.748;2024-03-22T10:28:26;15.40;;;7.00;;
72095;SDS011;59968;51.084;16.748;2024-03-22T10:30:55;14.10;;;6.90;;
72095;SDS011;59968;51.084;16.748;2024-03-22T10:33:23;16.10;;;7.30;;
72095;SDS011;59968;51.084;16.748;2024-03-22T10:35:52;14.60;;;6.80;;
72095;SDS011;59968;51.084;16.748;2024-03-22T10:38:24;15.20;;;7.40;;
72095;SDS011;59968;51.084;16.748;2024-03-22T10:40:54;12.80;;;6.30;;
72095;SDS011;59968;51.084;16.748;2024-03-22T10:43:24;15.00;;;7.10;;
72095;SDS011;59968;51.084;16.748;2024-03-22T10:45:52;16.60;;;7.30;;
72095;SDS011;59968;51.084;16.748;2024-03-22T10:48:28;15.10;;;7.70;;
72095;SDS011;59968;51.084;16.748;2024-03-22T10:51:01;13.90;;;6.60;;
72095;SDS011;59968;51.084;16.748;2024-03-22T10:53:31;14.40;;;6.40;;
72095;SDS011;59968;51.084;16.748;2024-03-22T10:56:00;13.50;;;6.60;;
72095;SDS011;59968;51.084;16.748;2024-03-22T10:58:30;15.80;;;7.10;;
72095;SDS011;59968;51.084;16.748;2024-03-22T11:00:59;14.70;;;7.20;;
72095;SDS011;59968;51.084;16.748;2024-03-22T11:03:28;13.20;;;6.70;;
72095;SDS011;59968;51.084;16.748;2024-03-22T11:05:59;15.00;;;7.60;;
72095;SDS011;59968;51.084;16.748;2024-03-22T11:08:28;15.20;;;7.50;;
72095;SDS011;59968;51.084;16.748;2024-03-22T11:10:57;14.50;;;6.50;;
72095;SDS011;59968;51.084;16.748;2024-03-22T11:13:26;16.30;;;6.80;;
72095;SDS011;59968;51.084;16.748;2024-03-22T11:15:54;14.70;;;6.70;;
72095;SDS011;59968;51.084;16.748;2024-03-22T11:18:22;13.90;;;6.30;;
72095;SDS011;59968;51.084;16.748;2024-03-22T11:20:51;12.60;;;6.00;;
72095;SDS011;59968;51.084;16.748;2024-03-22T11:23:19;13.40;;;6.30;;
72095;SDS011;59968;51.084;16.748;2024-03-22T11:25:48;13.10;;;6.70;;
72095;SDS011;59968;51.084;16.748;2024-03-22T11:28:18;12.30;;;6.10;;
72095;SDS011;59968;51.084;16.748;2024-03-22T11:30:47;12.70;;;6.20;;
72095;SDS011;59968;51.084;16.748;2024-03-22T11:33:16;11.20;;;5.90;;
72095;SDS011;59968;51.084;16.748;2024-03-22T11:35:44;10.40;;;5.80;;
72095;SDS011;59968;51.084;16.748;2024-03-22T11:38:12;12.30;;;5.90;;
72095;SDS011;59968;51.084;16.748;2024-03-22T11:40:40;13.30;;;6.80;;
72095;SDS011;59968;51.084;16.748;2024-03-22T11:43:12;9.40;;;4.50;;
72095;SDS011;59968;51.084;16.748;2024-03-22T11:45:44;10.10;;;4.50;;
72095;SDS011;59968;51.084;16.748;2024-03-22T11:48:12;9.00;;;4.60;;
72095;SDS011;59968;51.084;16.748;2024-03-22T11:50:41;9.40;;;4.90;;
72095;SDS011;59968;51.084;16.748;2024-03-22T11:53:09;7.60;;;3.80;;
72095;SDS011;59968;51.084;16.748;2024-03-22T11:55:37;9.30;;;4.30;;
72095;SDS011;59968;51.084;16.748;2024-03-22T11:58:08;7.10;;;3.80;;
72095;SDS011;59968;51.084;16.748;2024-03-22T12:00:42;7.80;;;4.20;;
72095;SDS011;59968;51.084;16.748;2024-03-22T12:03:30;5.30;;;3.00;;
72095;SDS011;59968;51.084;16.748;2024-03-22T12:05:58;7.10;;;3.40;;
72095;SDS011;59968;51.084;16.748;2024-03-22T12:08:27;7.30;;;3.90;;
72095;SDS011;59968;51.084;16.748;2024-03-22T12:10:55;7.90;;;4.20;;
72095;SDS011;59968;51.084;16.748;2024-03-22T12:13:24;7.70;;;3.80;;
72095;SDS011;59968;51.084;16.748;2024-03-22T12:15:52;6.70;;;3.30;;
72095;SDS011;59968;51.084;16.748;2024-03-22T12:18:20;6.70;;;3.40;;
72095;SDS011;59968;51.084;16.748;2024-03-22T12:20:49;6.20;;;3.00;;
72095;SDS011;59968;51.084;16.748;2024-03-22T12:23:17;5.60;;;3.00;;
72095;SDS011;59968;51.084;16.748;2024-03-22T12:25:45;6.60;;;2.90;;
72095;SDS011;59968;51.084;16.748;2024-03-22T12:28:14;6.90;;;3.20;;
72095;SDS011;59968;51.084;16.748;2024-03-22T12:30:43;6.50;;;2.90;;
72095;SDS011;59968;51.084;16.748;2024-03-22T12:33:11;8.20;;;3.10;;
72095;SDS011;59968;51.084;16.748;2024-03-22T12:35:40;6.40;;;3.00;;
72095;SDS011;59968;51.084;16.748;2024-03-22T12:38:09;6.50;;;3.30;;
72095;SDS011;59968;51.084;16.748;2024-03-22T12:40:40;6.30;;;2.90;;
72095;SDS011;59968;51.084;16.748;2024-03-22T12:43:09;5.00;;;2.80;;
72095;SDS011;59968;51.084;16.748;2024-03-22T12:45:39;8.90;;;3.10;;
72095;SDS011;59968;51.084;16.748;2024-03-22T12:48:07;6.70;;;2.80;;
72095;SDS011;59968;51.084;16.748;2024-03-22T12:50:37;6.50;;;3.30;;
72095;SDS011;59968;51.084;16.748;2024-03-22T12:53:05;6.20;;;2.80;;
72095;SDS011;59968;51.084;16.748;2024-03-22T12:55:34;7.30;;;3.20;;
72095;SDS011;59968;51.084;16.748;2024-03-22T12:58:02;6.50;;;2.60;;
72095;SDS011;59968;51.084;16.748;2024-03-22T13:00:31;5.90;;;2.80;;
72095;SDS011;59968;51.084;16.748;2024-03-22T13:03:02;6.10;;;2.70;;
72095;SDS011;59968;51.084;16.748;2024-03-22T13:05:31;6.00;;;2.70;;
72095;SDS011;59968;51.084;16.748;2024-03-22T13:07:59;6.00;;;2.70;;
72095;SDS011;59968;51.084;16.748;2024-03-22T13:10:28;6.30;;;2.70;;
72095;SDS011;59968;51.084;16.748;2024-03-22T13:12:56;5.90;;;2.60;;
72095;SDS011;59968;51.084;16.748;2024-03-22T13:15:25;5.10;;;2.50;;
72095;SDS011;59968;51.084;16.748;2024-03-22T13:17:54;5.90;;;2.70;;
72095;SDS011;59968;51.084;16.748;2024-03-22T13:20:23;6.30;;;2.80;;
72095;SDS011;59968;51.084;16.748;2024-03-22T13:22:52;6.60;;;2.60;;
72095;SDS011;59968;51.084;16.748;2024-03-22T13:25:20;6.40;;;2.80;;
72095;SDS011;59968;51.084;16.748;2024-03-22T13:27:49;8.60;;;3.40;;
72095;SDS011;59968;51.084;16.748;2024-03-22T13:30:17;7.20;;;3.40;;
72095;SDS011;59968;51.084;16.748;2024-03-22T15:02:50;17.80;;;11.40;;
72095;SDS011;59968;51.084;16.748;2024-03-22T15:05:18;17.20;;;9.50;;
72095;SDS011;59968;51.084;16.748;2024-03-22T15:07:46;17.20;;;10.50;;
72095;SDS011;59968;51.084;16.748;2024-03-22T15:10:15;17.20;;;10.50;;
72095;SDS011;59968;51.084;16.748;2024-03-22T15:12:43;17.50;;;10.60;;
72095;SDS011;59968;51.084;16.748;2024-03-22T15:15:11;23.50;;;11.60;;
72095;SDS011;59968;51.084;16.748;2024-03-22T15:17:40;20.20;;;10.80;;
72095;SDS011;59968;51.084;16.748;2024-03-22T15:20:09;18.40;;;10.80;;
72095;SDS011;59968;51.084;16.748;2024-03-22T15:22:37;18.50;;;10.70;;
72095;SDS011;59968;51.084;16.748;2024-03-22T15:25:06;17.90;;;11.10;;
72095;SDS011;59968;51.084;16.748;2024-03-22T15:27:34;19.00;;;11.40;;
72095;SDS011;59968;51.084;16.748;2024-03-22T15:30:02;18.10;;;10.00;;
72095;SDS011;59968;51.084;16.748;2024-03-22T15:32:34;17.30;;;10.10;;
72095;SDS011;59968;51.084;16.748;2024-03-22T15:35:02;17.40;;;9.30;;
72095;SDS011;59968;51.084;16.748;2024-03-22T15:37:31;18.20;;;11.10;;
72095;SDS011;59968;51.084;16.748;2024-03-22T15:39:59;18.10;;;10.50;;
72095;SDS011;59968;51.084;16.748;2024-03-22T15:42:28;19.60;;;10.90;;
72095;SDS011;59968;51.084;16.748;2024-03-22T15:44:56;16.40;;;10.50;;
72095;SDS011;59968;51.084;16.748;2024-03-22T15:47:31;19.20;;;10.10;;
72095;SDS011;59968;51.084;16.748;2024-03-22T15:50:00;17.40;;;10.90;;
72095;SDS011;59968;51.084;16.748;2024-03-22T15:52:29;17.30;;;9.90;;
72095;SDS011;59968;51.084;16.748;2024-03-22T15:54:58;15.40;;;9.80;;
72095;SDS011;59968;51.084;16.748;2024-03-22T15:57:27;16.50;;;9.80;;
72095;SDS011;59968;51.084;16.748;2024-03-22T15:59:56;17.40;;;10.00;;
72095;SDS011;59968;51.084;16.748;2024-03-22T16:02:25;19.00;;;10.00;;
72095;SDS011;59968;51.084;16.748;2024-03-22T16:04:54;16.70;;;10.20;;
72095;SDS011;59968;51.084;16.748;2024-03-22T16:07:24;16.90;;;9.90;;
72095;SDS011;59968;51.084;16.748;2024-03-22T16:09:54;19.60;;;10.70;;
72095;SDS011;59968;51.084;16.748;2024-03-22T16:12:24;16.70;;;9.40;;
72095;SDS011;59968;51.084;16.748;2024-03-22T16:14:53;15.60;;;10.10;;